createdAt,value
2023-04-09T00:01:25.652Z,9.80
2023-04-09T00:03:55.227Z,9.80
2023-04-09T00:06:23.340Z,9.80
2023-04-09T00:08:51.598Z,9.70
2023-04-09T00:11:19.795Z,9.70
2023-04-09T00:13:47.777Z,9.70
2023-04-09T00:16:15.908Z,9.60
2023-04-09T00:18:43.870Z,9.60
2023-04-09T00:21:13.206Z,9.50
2023-04-09T00:23:41.869Z,9.50
2023-04-09T00:26:10.441Z,9.50
2023-04-09T00:28:39.064Z,9.40
2023-04-09T00:31:07.552Z,9.40
2023-04-09T00:33:35.518Z,9.30
2023-04-09T00:36:03.566Z,9.20
2023-04-09T00:38:32.951Z,9.20
2023-04-09T00:41:00.935Z,9.10
2023-04-09T00:43:29.011Z,9.10
2023-04-09T00:45:57.181Z,9.00
2023-04-09T00:48:25.524Z,9.00
2023-04-09T00:50:53.557Z,9.00
2023-04-09T00:53:21.626Z,9.00
2023-04-09T00:55:51.028Z,9.00
2023-04-09T00:58:19.054Z,8.90
2023-04-09T01:00:47.514Z,8.90
2023-04-09T01:03:15.946Z,8.90
2023-04-09T01:05:52.541Z,8.80
2023-04-09T01:08:31.318Z,8.80
2023-04-09T01:11:07.192Z,8.80
2023-04-09T01:13:47.383Z,8.80
2023-04-09T01:16:18.744Z,8.70
2023-04-09T01:18:51.791Z,8.70
2023-04-09T01:21:24.222Z,8.70
2023-04-09T01:24:00.848Z,8.70
2023-04-09T01:26:54.688Z,8.60
2023-04-09T01:29:31.430Z,8.60
2023-04-09T01:32:01.695Z,8.50
2023-04-09T01:34:30.633Z,8.40
2023-04-09T01:37:01.743Z,8.30
2023-04-09T01:39:30.452Z,8.30
2023-04-09T01:41:58.832Z,8.30
2023-04-09T01:44:29.482Z,8.20
2023-04-09T01:46:59.135Z,8.20
2023-04-09T01:49:27.777Z,8.30
2023-04-09T01:51:56.035Z,8.30
2023-04-09T01:54:24.217Z,8.30
2023-04-09T01:56:52.312Z,8.30
2023-04-09T01:59:20.322Z,8.30
2023-04-09T02:01:54.786Z,8.30
2023-04-09T02:04:27.821Z,8.30
2023-04-09T02:07:00.455Z,8.30
2023-04-09T02:09:32.613Z,8.30
2023-04-09T02:12:05.224Z,8.30
2023-04-09T02:14:34.161Z,8.30
2023-04-09T02:17:04.056Z,8.30
2023-04-09T02:19:40.556Z,8.30
2023-04-09T02:22:08.918Z,8.30
2023-04-09T02:24:37.393Z,8.20
2023-04-09T02:27:06.122Z,8.20
2023-04-09T02:29:35.400Z,8.20
2023-04-09T02:32:04.841Z,8.10
2023-04-09T02:34:32.856Z,8.10
2023-04-09T02:37:00.884Z,8.10
2023-04-09T02:39:28.994Z,8.10
2023-04-09T02:41:57.835Z,8.00
2023-04-09T02:44:28.139Z,8.00
2023-04-09T02:46:57.219Z,8.00
2023-04-09T02:49:26.618Z,7.90
2023-04-09T02:51:54.688Z,7.90
2023-04-09T02:54:22.776Z,7.90
2023-04-09T02:56:50.775Z,7.80
2023-04-09T02:59:18.755Z,7.80
2023-04-09T03:01:46.878Z,7.80
2023-04-09T03:04:15.164Z,7.80
2023-04-09T03:06:44.504Z,7.80
2023-04-09T03:09:12.522Z,7.80
2023-04-09T03:11:40.692Z,7.80
2023-04-09T03:14:08.911Z,7.70
2023-04-09T03:16:36.855Z,7.70
2023-04-09T03:19:04.893Z,7.70
2023-04-09T03:21:33.153Z,7.70
2023-04-09T03:24:02.679Z,7.60
2023-04-09T03:26:36.026Z,7.50
2023-04-09T03:29:06.746Z,7.40
2023-04-09T03:31:35.175Z,7.50
2023-04-09T03:34:03.209Z,7.50
2023-04-09T03:36:33.168Z,7.40
2023-04-09T03:39:06.797Z,7.50
2023-04-09T03:41:40.569Z,7.50
2023-04-09T03:44:12.567Z,7.50
2023-04-09T03:46:54.812Z,7.50
2023-04-09T03:49:23.666Z,7.50
2023-04-09T03:51:51.823Z,7.40
2023-04-09T03:54:21.592Z,7.40
2023-04-09T03:56:49.817Z,7.40
2023-04-09T03:59:22.496Z,7.40
2023-04-09T04:01:50.879Z,7.40
2023-04-09T04:04:21.251Z,7.30
2023-04-09T04:06:55.872Z,7.30
2023-04-09T04:09:45.493Z,7.30
2023-04-09T04:12:16.867Z,7.20
2023-04-09T04:15:02.236Z,7.30
2023-04-09T04:17:53.166Z,7.30
2023-04-09T04:20:38.867Z,7.30
2023-04-09T04:23:13.455Z,7.20
2023-04-09T04:25:57.024Z,7.30
2023-04-09T04:28:35.009Z,7.20
2023-04-09T04:31:03.192Z,7.20
2023-04-09T04:33:34.087Z,7.10
2023-04-09T04:36:09.193Z,7.10
2023-04-09T04:38:42.176Z,7.10
2023-04-09T04:41:18.281Z,7.10
2023-04-09T04:43:53.633Z,7.10
2023-04-09T04:46:24.235Z,7.10
2023-04-09T04:48:52.608Z,7.10
2023-04-09T04:51:22.369Z,7.00
2023-04-09T04:54:11.715Z,7.00
2023-04-09T04:56:42.024Z,7.00
2023-04-09T04:59:18.868Z,7.00
2023-04-09T05:01:58.970Z,6.90
2023-04-09T05:04:28.827Z,6.90
2023-04-09T05:06:57.967Z,6.90
2023-04-09T05:09:27.040Z,7.00
2023-04-09T05:12:02.542Z,7.00
2023-04-09T05:14:30.816Z,7.00
2023-04-09T05:16:59.154Z,7.00
2023-04-09T05:19:33.669Z,7.00
2023-04-09T05:22:04.095Z,7.00
2023-04-09T05:24:32.581Z,7.00
2023-04-09T05:27:02.270Z,6.90
2023-04-09T05:29:31.020Z,7.00
2023-04-09T05:32:00.741Z,7.00
2023-04-09T05:34:33.534Z,7.00
2023-04-09T05:37:01.821Z,7.00
2023-04-09T05:39:30.251Z,6.90
2023-04-09T05:42:02.134Z,6.90
2023-04-09T05:44:40.824Z,6.90
2023-04-09T05:47:14.478Z,6.90
2023-04-09T05:49:56.961Z,6.90
2023-04-09T05:52:25.165Z,6.90
2023-04-09T05:54:53.786Z,7.00
2023-04-09T05:57:30.437Z,7.00
2023-04-09T06:00:01.353Z,7.10
2023-04-09T06:02:29.562Z,7.10
2023-04-09T06:04:57.575Z,7.10
2023-04-09T06:07:26.272Z,7.20
2023-04-09T06:09:54.653Z,7.30
2023-04-09T06:12:22.723Z,7.30
2023-04-09T06:14:52.136Z,7.30
2023-04-09T06:17:20.063Z,7.40
2023-04-09T06:19:48.092Z,7.40
2023-04-09T06:22:16.331Z,7.40
2023-04-09T06:24:44.308Z,7.50
2023-04-09T06:27:12.325Z,7.50
2023-04-09T06:29:40.339Z,7.60
2023-04-09T06:32:09.877Z,7.60
2023-04-09T06:34:37.948Z,7.70
2023-04-09T06:37:06.004Z,7.70
2023-04-09T06:39:34.067Z,7.70
2023-04-09T06:42:03.703Z,7.80
2023-04-09T06:44:40.932Z,7.80
2023-04-09T06:47:10.295Z,7.80
2023-04-09T06:49:38.245Z,7.90
2023-04-09T06:52:07.289Z,7.90
2023-04-09T06:54:35.795Z,8.00
2023-04-09T06:57:03.783Z,8.00
2023-04-09T06:59:32.043Z,8.10
2023-04-09T07:02:00.605Z,8.10
2023-04-09T07:04:30.216Z,8.10
2023-04-09T07:06:59.254Z,8.20
2023-04-09T07:09:27.259Z,8.30
2023-04-09T07:11:55.671Z,8.30
2023-04-09T07:14:23.749Z,8.40
2023-04-09T07:16:51.790Z,8.40
2023-04-09T07:19:19.841Z,8.50
2023-04-09T07:21:49.198Z,8.50
2023-04-09T07:24:17.280Z,8.60
2023-04-09T07:26:45.410Z,8.60
2023-04-09T07:29:13.411Z,8.60
2023-04-09T07:31:41.494Z,8.70
2023-04-09T07:34:09.484Z,8.70
2023-04-09T07:36:37.453Z,8.80
2023-04-09T07:39:06.843Z,8.80
2023-04-09T07:41:34.867Z,8.90
2023-04-09T07:44:03.910Z,8.90
2023-04-09T07:46:31.953Z,9.00
2023-04-09T07:48:59.991Z,9.00
2023-04-09T07:51:28.059Z,9.00
2023-04-09T07:53:56.106Z,9.10
2023-04-09T07:56:25.673Z,9.10
2023-04-09T07:58:53.930Z,9.20
2023-04-09T08:01:24.712Z,9.20
2023-04-09T08:03:52.941Z,9.30
2023-04-09T08:06:21.124Z,9.30
2023-04-09T08:08:49.165Z,9.30
2023-04-09T08:11:22.143Z,9.40
2023-04-09T08:13:51.528Z,9.40
2023-04-09T08:16:19.745Z,9.50
2023-04-09T08:18:47.936Z,9.60
2023-04-09T08:21:16.328Z,9.60
2023-04-09T08:23:44.482Z,9.60
2023-04-09T08:26:12.472Z,9.70
2023-04-09T08:28:40.479Z,9.70
2023-04-09T08:31:10.621Z,9.70
2023-04-09T08:33:38.735Z,9.80
2023-04-09T08:36:11.342Z,9.80
2023-04-09T08:38:39.482Z,9.80
2023-04-09T08:41:07.685Z,9.90
2023-04-09T08:43:53.256Z,9.90
2023-04-09T08:46:27.260Z,10.00
2023-04-09T08:48:55.813Z,10.10
2023-04-09T08:51:25.666Z,10.20
2023-04-09T08:53:58.367Z,10.10
2023-04-09T08:56:27.257Z,10.20
2023-04-09T08:58:56.690Z,10.20
2023-04-09T09:01:27.645Z,10.10
2023-04-09T09:03:58.040Z,10.20
2023-04-09T09:06:28.746Z,10.30
2023-04-09T09:09:10.659Z,10.40
2023-04-09T09:11:40.331Z,10.40
2023-04-09T09:14:09.429Z,10.50
2023-04-09T09:16:42.853Z,10.50
2023-04-09T09:19:11.697Z,10.60
2023-04-09T09:21:40.892Z,10.60
2023-04-09T09:24:18.808Z,10.60
2023-04-09T09:26:46.741Z,10.70
2023-04-09T09:29:14.776Z,10.70
2023-04-09T09:31:50.145Z,10.70
2023-04-09T09:34:18.530Z,10.80
2023-04-09T09:36:47.352Z,10.90
2023-04-09T09:39:17.485Z,11.00
2023-04-09T09:41:47.241Z,11.00
2023-04-09T09:44:32.337Z,11.00
2023-04-09T09:47:04.467Z,11.10
2023-04-09T09:49:32.500Z,11.10
2023-04-09T09:52:02.847Z,11.20
2023-04-09T09:54:43.179Z,11.30
2023-04-09T09:57:13.547Z,11.30
2023-04-09T09:59:44.822Z,11.30
2023-04-09T10:02:20.607Z,11.30
2023-04-09T10:04:50.797Z,11.40
2023-04-09T10:07:20.911Z,11.40
2023-04-09T10:09:52.848Z,11.50
2023-04-09T10:12:24.231Z,11.50
2023-04-09T10:14:53.153Z,11.60
2023-04-09T10:17:22.721Z,11.80
2023-04-09T10:20:02.527Z,11.90
2023-04-09T10:22:33.060Z,11.90
2023-04-09T10:25:01.352Z,12.00
2023-04-09T10:27:29.427Z,12.00
2023-04-09T10:29:57.860Z,12.10
2023-04-09T10:32:28.321Z,12.20
2023-04-09T10:34:59.271Z,12.30
2023-04-09T10:37:29.848Z,12.30
2023-04-09T10:39:58.707Z,12.40
2023-04-09T10:42:33.136Z,12.50
2023-04-09T10:45:09.345Z,12.60
2023-04-09T10:47:40.213Z,12.60
2023-04-09T10:50:18.981Z,12.70
2023-04-09T10:52:47.206Z,12.80
2023-04-09T10:55:33.935Z,12.70
2023-04-09T10:58:01.969Z,12.60
2023-04-09T11:00:30.275Z,12.80
2023-04-09T11:03:29.102Z,12.90
2023-04-09T11:06:01.495Z,13.00
2023-04-09T11:08:31.353Z,13.00
2023-04-09T11:11:01.364Z,12.90
2023-04-09T11:13:31.341Z,12.80
2023-04-09T11:16:01.363Z,13.00
2023-04-09T11:18:33.895Z,13.10
2023-04-09T11:21:03.881Z,13.30
2023-04-09T11:23:33.519Z,13.40
2023-04-09T11:26:01.840Z,13.50
2023-04-09T11:28:29.883Z,13.50
2023-04-09T11:30:57.951Z,13.60
2023-04-09T11:33:34.375Z,13.70
2023-04-09T11:36:02.839Z,13.80
2023-04-09T11:38:32.609Z,13.70
2023-04-09T11:41:01.371Z,13.70
2023-04-09T11:43:29.364Z,13.70
2023-04-09T11:45:57.790Z,13.80
2023-04-09T11:48:26.090Z,13.90
2023-04-09T11:50:55.774Z,14.10
2023-04-09T11:53:24.592Z,14.30
2023-04-09T11:55:53.959Z,14.40
2023-04-09T11:58:23.789Z,14.50
2023-04-09T12:00:54.247Z,14.60
2023-04-09T12:03:29.747Z,14.70
2023-04-09T12:06:02.031Z,14.70
2023-04-09T12:08:31.139Z,14.70
2023-04-09T12:11:08.462Z,14.70
2023-04-09T12:13:36.510Z,14.70
2023-04-09T12:16:04.620Z,14.80
2023-04-09T12:18:32.623Z,14.80
2023-04-09T12:21:02.668Z,14.90
2023-04-09T12:23:31.427Z,14.90
2023-04-09T12:26:01.234Z,14.90
2023-04-09T12:28:29.927Z,14.90
2023-04-09T12:30:59.413Z,14.90
2023-04-09T12:33:27.509Z,14.90
2023-04-09T12:35:56.139Z,14.90
2023-04-09T12:38:26.659Z,14.90
2023-04-09T12:40:54.913Z,15.00
2023-04-09T12:43:22.948Z,15.10
2023-04-09T12:45:52.850Z,15.10
2023-04-09T12:48:20.893Z,15.20
2023-04-09T12:50:48.851Z,15.20
2023-04-09T12:53:16.831Z,15.20
2023-04-09T12:55:46.291Z,15.30
2023-04-09T12:58:14.347Z,15.40
2023-04-09T13:00:42.786Z,15.50
2023-04-09T13:03:11.907Z,15.60
2023-04-09T13:05:40.006Z,15.60
2023-04-09T13:08:08.077Z,15.60
2023-04-09T13:10:36.448Z,15.60
2023-04-09T13:13:07.000Z,15.60
2023-04-09T13:15:35.285Z,15.60
2023-04-09T13:18:03.419Z,15.60
2023-04-09T13:20:31.676Z,15.60
2023-04-09T13:22:59.609Z,15.60
2023-04-09T13:25:27.684Z,15.70
2023-04-09T13:27:55.741Z,15.70
2023-04-09T13:30:26.279Z,15.80
2023-04-09T13:32:54.405Z,15.90
2023-04-09T13:35:22.537Z,15.90
2023-04-09T13:37:50.476Z,15.90
2023-04-09T13:40:18.624Z,15.70
2023-04-09T13:42:46.804Z,15.60
2023-04-09T13:45:14.836Z,15.50
2023-04-09T13:47:44.244Z,15.60
2023-04-09T13:50:13.787Z,15.70
2023-04-09T13:52:41.774Z,15.70
2023-04-09T13:55:11.527Z,15.80
2023-04-09T13:57:39.588Z,15.90
2023-04-09T14:00:08.916Z,15.90
2023-04-09T14:02:36.853Z,15.90
2023-04-09T14:05:07.077Z,15.90
2023-04-09T14:07:35.401Z,15.70
2023-04-09T14:10:03.496Z,15.40
2023-04-09T14:12:31.611Z,15.40
2023-04-09T14:14:59.594Z,15.30
2023-04-09T14:17:27.895Z,15.50
2023-04-09T14:19:57.809Z,15.70
2023-04-09T14:22:29.710Z,15.90
2023-04-09T14:24:57.726Z,16.10
2023-04-09T14:27:25.951Z,16.20
2023-04-09T14:29:54.134Z,16.30
2023-04-09T14:32:22.162Z,16.20
2023-04-09T14:34:50.401Z,16.10
2023-04-09T14:37:18.371Z,16.30
2023-04-09T14:39:47.664Z,16.40
2023-04-09T14:42:15.708Z,16.50
2023-04-09T14:44:43.746Z,16.60
2023-04-09T14:47:11.896Z,16.60
2023-04-09T14:49:39.915Z,16.60
2023-04-09T14:52:08.028Z,16.60
2023-04-09T14:54:37.746Z,16.60
2023-04-09T14:57:07.114Z,16.50
2023-04-09T14:59:35.972Z,16.50
2023-04-09T15:02:04.114Z,16.60
2023-04-09T15:04:32.337Z,16.70
2023-04-09T15:07:00.446Z,17.00
2023-04-09T15:09:28.447Z,17.50
2023-04-09T15:11:57.044Z,18.40
2023-04-09T15:14:30.558Z,19.50
2023-04-09T15:16:58.735Z,20.40
2023-04-09T15:19:26.732Z,21.40
2023-04-09T15:21:54.728Z,22.10
2023-04-09T15:24:22.736Z,22.80
2023-04-09T15:26:50.989Z,23.30
2023-04-09T15:29:18.993Z,23.70
2023-04-09T15:31:49.066Z,23.80
2023-04-09T15:34:17.078Z,23.90
2023-04-09T15:36:46.169Z,23.60
2023-04-09T15:39:14.291Z,23.10
2023-04-09T15:41:42.233Z,22.60
2023-04-09T15:44:10.334Z,22.30
2023-04-09T15:46:39.223Z,22.40
2023-04-09T15:49:08.580Z,22.50
2023-04-09T15:51:36.564Z,23.00
2023-04-09T15:54:04.637Z,23.70
2023-04-09T15:56:32.933Z,24.40
2023-04-09T15:59:02.080Z,24.70
2023-04-09T16:01:30.150Z,24.20
2023-04-09T16:03:58.263Z,23.30
2023-04-09T16:06:27.953Z,22.30
2023-04-09T16:08:56.534Z,22.30
2023-04-09T16:11:24.604Z,22.70
2023-04-09T16:13:52.576Z,23.30
2023-04-09T16:16:21.114Z,23.40
2023-04-09T16:18:49.105Z,23.20
2023-04-09T16:21:17.162Z,22.30
2023-04-09T16:23:46.645Z,22.70
2023-04-09T16:26:14.595Z,23.60
2023-04-09T16:28:42.646Z,24.70
2023-04-09T16:31:10.708Z,25.30
2023-04-09T16:33:38.766Z,25.90
2023-04-09T16:36:07.477Z,26.50
2023-04-09T16:38:35.458Z,27.20
2023-04-09T16:41:04.845Z,27.80
2023-04-09T16:43:32.838Z,28.10
2023-04-09T16:46:00.841Z,28.50
2023-04-09T16:48:28.876Z,28.90
2023-04-09T16:50:56.896Z,29.10
2023-04-09T16:53:24.985Z,29.40
2023-04-09T16:55:53.037Z,29.40
2023-04-09T16:58:22.468Z,29.40
2023-04-09T17:00:51.964Z,29.40
2023-04-09T17:03:20.325Z,28.90
2023-04-09T17:05:49.473Z,28.80
2023-04-09T17:08:17.980Z,28.70
2023-04-09T17:10:46.150Z,28.70
2023-04-09T17:13:14.237Z,28.60
2023-04-09T17:15:43.760Z,28.50
2023-04-09T17:18:11.734Z,28.40
2023-04-09T17:20:39.704Z,28.20
2023-04-09T17:23:07.732Z,28.30
2023-04-09T17:25:35.704Z,28.20
2023-04-09T17:28:04.833Z,27.90
2023-04-09T17:30:33.212Z,27.60
2023-04-09T17:33:02.717Z,27.20
2023-04-09T17:35:30.783Z,26.70
2023-04-09T17:37:58.761Z,26.20
2023-04-09T17:40:28.037Z,25.50
2023-04-09T17:42:56.099Z,24.80
2023-04-09T17:45:24.169Z,24.10
2023-04-09T17:47:52.209Z,23.50
2023-04-09T17:50:21.670Z,22.80
2023-04-09T17:52:50.604Z,22.20
2023-04-09T17:55:19.329Z,21.70
2023-04-09T17:57:47.632Z,21.20
2023-04-09T18:00:16.707Z,20.80
2023-04-09T18:02:47.715Z,20.40
2023-04-09T18:05:16.338Z,20.00
2023-04-09T18:07:45.845Z,19.70
2023-04-09T18:10:13.805Z,19.40
2023-04-09T18:12:41.851Z,19.20
2023-04-09T18:15:11.024Z,19.00
2023-04-09T18:17:39.152Z,18.80
2023-04-09T18:20:08.308Z,18.60
2023-04-09T18:22:36.337Z,18.50
2023-04-09T18:25:07.043Z,18.30
2023-04-09T18:27:35.108Z,18.20
2023-04-09T18:30:03.724Z,18.00
2023-04-09T18:32:32.373Z,17.80
2023-04-09T18:35:01.003Z,17.60
2023-04-09T18:37:29.171Z,17.40
2023-04-09T18:39:57.545Z,17.40
2023-04-09T18:42:26.942Z,17.30
2023-04-09T18:44:54.848Z,17.20
2023-04-09T18:47:22.916Z,17.10
2023-04-09T18:49:50.998Z,17.00
2023-04-09T18:52:18.997Z,16.90
2023-04-09T18:54:48.198Z,16.80
2023-04-09T18:57:16.782Z,16.70
2023-04-09T18:59:48.173Z,16.60
2023-04-09T19:02:16.285Z,16.60
2023-04-09T19:04:45.078Z,16.50
2023-04-09T19:07:13.282Z,16.40
2023-04-09T19:09:41.762Z,16.30
2023-04-09T19:12:09.870Z,16.20
2023-04-09T19:14:40.104Z,16.10
2023-04-09T19:17:09.565Z,16.10
2023-04-09T19:19:37.575Z,16.00
2023-04-09T19:22:05.533Z,16.00
2023-04-09T19:24:33.517Z,15.90
2023-04-09T19:27:08.006Z,15.80
2023-04-09T19:29:36.195Z,15.70
2023-04-09T19:32:04.370Z,15.60
2023-04-09T19:34:33.781Z,15.50
2023-04-09T19:37:02.454Z,15.40
2023-04-09T19:39:30.408Z,15.30
2023-04-09T19:41:58.430Z,15.20
2023-04-09T19:44:26.386Z,15.00
2023-04-09T19:46:54.366Z,15.00
2023-04-09T19:49:22.315Z,14.90
2023-04-09T19:51:51.835Z,15.00
2023-04-09T19:54:19.796Z,15.00
2023-04-09T19:56:47.765Z,14.90
2023-04-09T19:59:15.751Z,14.90
2023-04-09T20:01:43.954Z,14.90
2023-04-09T20:04:13.058Z,14.80
2023-04-09T20:06:41.632Z,14.80
2023-04-09T20:09:12.360Z,14.80
2023-04-09T20:11:40.528Z,14.80
2023-04-09T20:14:08.544Z,14.70
2023-04-09T20:16:36.712Z,14.70
2023-04-09T20:19:04.752Z,14.60
2023-04-09T20:21:32.711Z,14.60
2023-04-09T20:24:00.706Z,14.50
2023-04-09T20:26:30.024Z,14.50
2023-04-09T20:28:58.077Z,14.40
2023-04-09T20:31:27.858Z,14.40
2023-04-09T20:33:55.856Z,14.30
2023-04-09T20:36:23.873Z,14.30
2023-04-09T20:38:52.181Z,14.30
2023-04-09T20:41:20.366Z,14.20
2023-04-09T20:43:49.749Z,14.20
2023-04-09T20:46:17.820Z,14.20
2023-04-09T20:48:45.914Z,14.20
2023-04-09T20:51:14.789Z,14.10
2023-04-09T20:53:42.792Z,14.10
2023-04-09T20:56:10.796Z,14.00
2023-04-09T20:58:38.930Z,14.00
2023-04-09T21:01:10.315Z,13.90
2023-04-09T21:03:40.021Z,13.90
2023-04-09T21:06:08.605Z,13.90
2023-04-09T21:08:38.428Z,13.90
2023-04-09T21:11:06.701Z,13.90
2023-04-09T21:13:46.875Z,13.90
2023-04-09T21:16:23.194Z,13.90
2023-04-09T21:18:51.621Z,13.90
2023-04-09T21:21:19.940Z,13.80
2023-04-09T21:23:49.981Z,13.80
2023-04-09T21:26:17.968Z,13.80
2023-04-09T21:28:50.294Z,13.80
2023-04-09T21:31:18.352Z,13.70
2023-04-09T21:33:47.757Z,13.70
2023-04-09T21:36:15.781Z,13.70
2023-04-09T21:38:43.868Z,13.60
2023-04-09T21:41:11.799Z,13.60
2023-04-09T21:43:39.800Z,13.50
2023-04-09T21:46:08.011Z,13.50
2023-04-09T21:48:37.230Z,13.50
2023-04-09T21:51:10.509Z,13.50
2023-04-09T21:53:38.747Z,13.40
2023-04-09T21:56:08.077Z,13.40
2023-04-09T21:58:36.132Z,13.40
2023-04-09T22:01:04.187Z,13.40
2023-04-09T22:03:32.629Z,13.30
2023-04-09T22:06:00.755Z,13.30
2023-04-09T22:08:30.532Z,13.20
2023-04-09T22:10:58.443Z,13.20
2023-04-09T22:13:27.283Z,13.20
2023-04-09T22:15:55.289Z,13.20
2023-04-09T22:18:23.338Z,13.20
2023-04-09T22:20:51.404Z,13.20
2023-04-09T22:23:19.387Z,13.20
2023-04-09T22:25:48.801Z,13.10
2023-04-09T22:28:16.767Z,13.10
2023-04-09T22:30:45.210Z,13.10
2023-04-09T22:33:13.201Z,13.00
2023-04-09T22:35:41.245Z,13.00
2023-04-09T22:38:09.979Z,13.00
2023-04-09T22:40:37.937Z,12.90
2023-04-09T22:43:07.379Z,12.90
2023-04-09T22:45:35.285Z,12.90
2023-04-09T22:48:03.327Z,12.90
2023-04-09T22:50:31.383Z,12.80
2023-04-09T22:53:00.319Z,12.80
2023-04-09T22:55:28.702Z,12.80
2023-04-09T22:57:57.977Z,12.70
2023-04-09T23:00:27.343Z,12.60
2023-04-09T23:02:55.520Z,12.50
2023-04-09T23:05:23.786Z,12.40
2023-04-09T23:07:52.331Z,12.30
2023-04-09T23:10:20.955Z,12.20
2023-04-09T23:12:49.452Z,12.20
2023-04-09T23:15:17.587Z,12.20
2023-04-09T23:17:46.957Z,12.20
2023-04-09T23:20:15.420Z,12.20
2023-04-09T23:22:43.431Z,12.10
2023-04-09T23:25:11.410Z,12.00
2023-04-09T23:27:39.373Z,12.00
2023-04-09T23:30:08.779Z,12.00
2023-04-09T23:32:36.978Z,12.00
2023-04-09T23:35:07.171Z,12.00
2023-04-09T23:37:35.331Z,11.90
2023-04-09T23:40:03.787Z,11.80
2023-04-09T23:42:33.876Z,11.80
2023-04-09T23:45:04.285Z,11.80
2023-04-09T23:47:33.539Z,11.80
2023-04-09T23:50:04.715Z,11.80
2023-04-09T23:52:34.924Z,11.70
2023-04-09T23:55:03.292Z,11.70
2023-04-09T23:57:31.375Z,11.70
2023-04-09T23:59:59.373Z,11.70
